createdAt,value
2019-04-10T00:01:34.095Z,92
2019-04-10T00:07:11.746Z,91
2019-04-10T00:12:36.039Z,90
2019-04-10T00:18:07.436Z,92
2019-04-10T00:23:39.394Z,94
2019-04-10T00:29:09.584Z,95
2019-04-10T00:34:40.684Z,94
2019-04-10T00:40:12.055Z,96
2019-04-10T00:45:43.969Z,98
2019-04-10T00:51:14.906Z,97
2019-04-10T00:56:45.346Z,97
2019-04-10T01:02:16.528Z,96
2019-04-10T01:07:48.548Z,96
2019-04-10T01:13:18.824Z,96
2019-04-10T01:18:49.861Z,96
2019-04-10T01:24:21.643Z,97
2019-04-10T01:29:52.085Z,97
2019-04-10T01:35:23.140Z,97
2019-04-10T01:40:55.351Z,97
2019-04-10T01:46:26.348Z,97
2019-04-10T01:51:57.317Z,97
2019-04-10T01:57:28.382Z,96
2019-04-10T02:02:58.457Z,97
2019-04-10T02:08:29.820Z,97
2019-04-10T02:14:00.697Z,97
2019-04-10T02:19:32.271Z,97
2019-04-10T02:25:03.380Z,97
2019-04-10T02:30:34.620Z,97
2019-04-10T02:36:05.665Z,96
2019-04-10T02:41:36.486Z,94
2019-04-10T02:47:07.589Z,96
2019-04-10T02:52:41.032Z,96
2019-04-10T02:58:09.843Z,96
2019-04-10T03:03:42.341Z,95
2019-04-10T03:09:28.718Z,96
2019-04-10T03:14:44.976Z,96
2019-04-10T03:20:14.209Z,97
2019-04-10T03:25:45.439Z,97
2019-04-10T03:31:16.348Z,96
2019-04-10T03:36:47.602Z,96
2019-04-10T03:42:18.935Z,97
2019-04-10T03:47:49.781Z,97
2019-04-10T03:53:20.911Z,98
2019-04-10T03:58:52.105Z,99
2019-04-10T04:04:23.720Z,100
2019-04-10T04:09:54.182Z,100
2019-04-10T04:15:26.102Z,98
2019-04-10T04:20:56.317Z,97
2019-04-10T04:26:28.202Z,96
2019-04-10T04:31:59.083Z,96
2019-04-10T04:37:30.128Z,95
2019-04-10T04:43:00.909Z,96
2019-04-10T04:48:31.903Z,96
2019-04-10T04:54:02.962Z,95
2019-04-10T04:59:34.581Z,95
2019-04-10T05:05:05.129Z,96
2019-04-10T05:10:36.267Z,93
2019-04-10T05:16:08.166Z,94
2019-04-10T05:21:38.506Z,94
2019-04-10T05:27:09.848Z,91
2019-04-10T05:32:41.751Z,91
2019-04-10T05:38:12.256Z,92
2019-04-10T05:43:43.032Z,91
2019-04-10T05:49:14.938Z,91
2019-04-10T05:54:45.561Z,93
2019-04-10T06:00:16.914Z,94
2019-04-10T06:05:48.627Z,96
2019-04-10T06:11:20.430Z,101
2019-04-10T06:16:51.024Z,102
2019-04-10T06:22:22.778Z,102
2019-04-10T06:27:53.036Z,102
2019-04-10T06:33:25.789Z,101
2019-04-10T06:38:56.866Z,100
2019-04-10T06:44:30.089Z,100
2019-04-10T06:50:02.391Z,101
2019-04-10T06:55:33.545Z,100
2019-04-10T07:01:06.313Z,97
2019-04-10T07:06:49.695Z,96
2019-04-10T07:12:10.524Z,96
2019-04-10T07:17:43.239Z,85
2019-04-10T07:23:21.879Z,83
2019-04-10T07:28:49.221Z,88
2019-04-10T07:34:25.139Z,87
2019-04-10T07:39:55.132Z,88
2019-04-10T07:45:27.951Z,89
2019-04-10T07:51:01.155Z,91
2019-04-10T07:56:35.352Z,88
2019-04-10T08:02:08.753Z,83
2019-04-10T08:07:41.383Z,81
2019-04-10T08:13:14.795Z,83
2019-04-10T08:18:48.259Z,80
2019-04-10T08:24:21.746Z,82
2019-04-10T08:29:55.288Z,82
2019-04-10T08:35:29.345Z,81
2019-04-10T08:41:02.803Z,81
2019-04-10T08:46:36.123Z,77
2019-04-10T08:52:10.336Z,75
2019-04-10T08:57:43.867Z,78
2019-04-10T09:03:17.547Z,79
2019-04-10T09:08:51.514Z,82
2019-04-10T09:14:26.211Z,78
2019-04-10T09:19:58.686Z,77
2019-04-10T09:25:31.819Z,80
2019-04-10T09:31:05.628Z,75
2019-04-10T09:36:39.612Z,78
2019-04-10T09:42:12.921Z,75
2019-04-10T09:47:48.037Z,75
2019-04-10T09:53:21.276Z,76
2019-04-10T09:58:56.650Z,79
2019-04-10T10:04:29.481Z,76
2019-04-10T10:10:04.215Z,80
2019-04-10T10:15:37.645Z,78
2019-04-10T10:21:10.870Z,77
2019-04-10T10:26:46.397Z,77
2019-04-10T10:32:19.183Z,72
2019-04-10T10:37:52.793Z,74
2019-04-10T10:43:27.116Z,76
2019-04-10T10:49:02.264Z,75
2019-04-10T10:54:36.861Z,74
2019-04-10T11:00:12.749Z,74
2019-04-10T11:05:44.528Z,72
2019-04-10T11:11:19.920Z,73
2019-04-10T11:16:53.663Z,78
2019-04-10T11:22:27.119Z,74
2019-04-10T11:28:01.160Z,72
2019-04-10T11:33:34.788Z,73
2019-04-10T11:39:16.645Z,74
2019-04-10T11:44:45.250Z,74
2019-04-10T11:50:18.266Z,76
2019-04-10T11:55:52.925Z,71
2019-04-10T12:01:25.342Z,71
2019-04-10T12:07:00.178Z,73
2019-04-10T12:12:31.416Z,72
2019-04-10T12:18:05.045Z,74
2019-04-10T12:23:38.655Z,73
2019-04-10T12:29:12.348Z,72
2019-04-10T12:34:50.773Z,72
2019-04-10T12:40:23.685Z,75
2019-04-10T12:45:57.169Z,72
2019-04-10T12:51:31.885Z,71
2019-04-10T12:57:04.313Z,71
2019-04-10T13:02:38.603Z,67
2019-04-10T13:08:20.358Z,70
2019-04-10T13:13:44.962Z,71
2019-04-10T13:19:18.806Z,70
2019-04-10T13:24:52.366Z,67
2019-04-10T13:30:27.027Z,67
2019-04-10T13:36:00.038Z,68
2019-04-10T13:41:34.492Z,68
2019-04-10T13:47:07.833Z,67
2019-04-10T13:52:42.592Z,71
2019-04-10T13:58:15.858Z,68
2019-04-10T14:03:50.326Z,70
2019-04-10T14:09:34.059Z,74
2019-04-10T14:14:57.424Z,75
2019-04-10T14:20:30.928Z,75
2019-04-10T14:26:04.326Z,74
2019-04-10T14:31:36.472Z,75
2019-04-10T14:37:09.724Z,75
2019-04-10T14:42:42.926Z,75
2019-04-10T14:48:16.142Z,74
2019-04-10T14:53:49.145Z,73
2019-04-10T14:59:22.224Z,73
2019-04-10T15:04:55.412Z,73
2019-04-10T15:10:28.360Z,74
2019-04-10T15:16:01.443Z,74
2019-04-10T15:21:34.689Z,73
2019-04-10T15:27:07.452Z,73
2019-04-10T15:32:40.441Z,74
2019-04-10T15:38:13.731Z,74
2019-04-10T15:43:46.372Z,75
2019-04-10T15:49:19.459Z,76
2019-04-10T15:54:53.771Z,75
2019-04-10T16:00:25.388Z,77
2019-04-10T16:05:58.093Z,77
2019-04-10T16:11:31.926Z,77
2019-04-10T16:17:04.677Z,78
2019-04-10T16:22:36.662Z,79
2019-04-10T16:28:10.987Z,79
2019-04-10T16:33:43.331Z,80
2019-04-10T16:39:15.507Z,80
2019-04-10T16:44:49.098Z,80
2019-04-10T16:50:21.606Z,81
2019-04-10T16:55:53.658Z,81
2019-04-10T17:01:26.782Z,82
2019-04-10T17:06:59.180Z,82
2019-04-10T17:12:33.773Z,82
2019-04-10T17:18:04.639Z,81
2019-04-10T17:23:37.384Z,82
2019-04-10T17:29:09.698Z,82
2019-04-10T17:34:43.075Z,83
2019-04-10T17:40:27.109Z,83
2019-04-10T17:45:47.503Z,84
2019-04-10T17:51:19.752Z,84
2019-04-10T17:56:51.202Z,84
2019-04-10T18:02:23.365Z,83
2019-04-10T18:07:54.738Z,87
2019-04-10T18:13:26.742Z,87
2019-04-10T18:18:58.288Z,91
2019-04-10T18:24:30.405Z,87
2019-04-10T18:30:02.437Z,87
2019-04-10T18:35:35.285Z,90
2019-04-10T18:41:09.013Z,89
2019-04-10T18:46:40.182Z,89
2019-04-10T18:52:12.961Z,91
2019-04-10T18:57:45.387Z,93
2019-04-10T19:03:17.873Z,93
2019-04-10T19:09:02.620Z,94
2019-04-10T19:14:23.011Z,93
2019-04-10T19:19:56.741Z,93
2019-04-10T19:25:28.193Z,93
2019-04-10T19:31:08.479Z,93
2019-04-10T19:36:34.372Z,93
2019-04-10T19:42:05.914Z,93
2019-04-10T19:47:38.816Z,93
2019-04-10T19:53:11.195Z,92
2019-04-10T19:58:44.064Z,93
2019-04-10T20:04:17.232Z,92
2019-04-10T20:09:48.656Z,94
2019-04-10T20:15:21.210Z,94
2019-04-10T20:20:53.659Z,94
2019-04-10T20:26:27.212Z,94
2019-04-10T20:31:58.825Z,93
2019-04-10T20:37:31.368Z,92
2019-04-10T20:43:04.765Z,92
2019-04-10T20:48:38.320Z,92
2019-04-10T20:54:08.986Z,92
2019-04-10T20:59:42.492Z,93
2019-04-10T21:05:15.219Z,93
2019-04-10T21:10:47.199Z,92
2019-04-10T21:16:19.956Z,93
2019-04-10T21:21:52.077Z,93
2019-04-10T21:27:24.351Z,92
2019-04-10T21:32:58.277Z,92
2019-04-10T21:38:30.176Z,92
2019-04-10T21:44:02.306Z,92
2019-04-10T21:49:35.905Z,93
2019-04-10T21:55:07.316Z,93
2019-04-10T22:00:40.777Z,93
2019-04-10T22:06:13.341Z,93
2019-04-10T22:11:45.593Z,93
2019-04-10T22:17:17.420Z,93
2019-04-10T22:22:50.029Z,93
2019-04-10T22:28:23.229Z,93
2019-04-10T22:33:56.278Z,93
2019-04-10T22:39:27.716Z,94
2019-04-10T22:45:00.365Z,94
2019-04-10T22:50:32.758Z,92
2019-04-10T22:56:05.259Z,94
2019-04-10T23:01:37.829Z,93
2019-04-10T23:07:11.434Z,94
2019-04-10T23:12:51.769Z,92
2019-04-10T23:18:15.469Z,91
2019-04-10T23:23:48.871Z,93
2019-04-10T23:29:20.517Z,93
2019-04-10T23:34:53.142Z,94
2019-04-10T23:40:25.568Z,93
2019-04-10T23:45:58.068Z,93
2019-04-10T23:51:31.433Z,93
2019-04-10T23:57:07.508Z,93
